sensor_id;sensor_type;location;lat;lon;timestamp;P1;durP1;ratioP1;P2;durP2;ratioP2
1000;SDS011;489;47.806;12.858;2023-08-30T00:01:30;1.90;;;1.80;;
1000;SDS011;489;47.806;12.858;2023-08-30T00:03:31;2.13;;;2.03;;
1000;SDS011;489;47.806;12.858;2023-08-30T00:05:33;2.37;;;2.27;;
1000;SDS011;489;47.806;12.858;2023-08-30T00:07:37;2.17;;;2.03;;
1000;SDS011;489;47.806;12.858;2023-08-30T00:09:38;2.37;;;2.20;;
1000;SDS011;489;47.806;12.858;2023-08-30T00:11:40;2.10;;;2.00;;
1000;SDS011;489;47.806;12.858;2023-08-30T00:13:42;2.07;;;1.97;;
1000;SDS011;489;47.806;12.858;2023-08-30T00:15:43;2.40;;;2.20;;
1000;SDS011;489;47.806;12.858;2023-08-30T00:18:07;2.50;;;2.30;;
1000;SDS011;489;47.806;12.858;2023-08-30T00:20:09;2.27;;;2.17;;
1000;SDS011;489;47.806;12.858;2023-08-30T00:22:12;2.50;;;2.30;;
1000;SDS011;489;47.806;12.858;2023-08-30T00:24:16;2.00;;;1.90;;
1000;SDS011;489;47.806;12.858;2023-08-30T00:26:17;2.47;;;2.27;;
1000;SDS011;489;47.806;12.858;2023-08-30T00:28:20;2.40;;;2.30;;
1000;SDS011;489;47.806;12.858;2023-08-30T00:30:22;1.80;;;1.70;;
1000;SDS011;489;47.806;12.858;2023-08-30T00:32:24;1.80;;;1.70;;
1000;SDS011;489;47.806;12.858;2023-08-30T00:34:26;2.20;;;2.10;;
1000;SDS011;489;47.806;12.858;2023-08-30T00:36:28;2.40;;;2.20;;
1000;SDS011;489;47.806;12.858;2023-08-30T00:38:32;2.40;;;2.23;;
1000;SDS011;489;47.806;12.858;2023-08-30T00:40:41;2.10;;;2.00;;
1000;SDS011;489;47.806;12.858;2023-08-30T00:42:44;2.73;;;2.53;;
1000;SDS011;489;47.806;12.858;2023-08-30T00:44:46;2.77;;;2.57;;
1000;SDS011;489;47.806;12.858;2023-08-30T00:46:48;2.80;;;2.60;;
1000;SDS011;489;47.806;12.858;2023-08-30T00:48:50;2.60;;;2.40;;
1000;SDS011;489;47.806;12.858;2023-08-30T00:50:52;3.00;;;2.80;;
1000;SDS011;489;47.806;12.858;2023-08-30T00:52:54;2.63;;;2.43;;
1000;SDS011;489;47.806;12.858;2023-08-30T00:54:54;2.30;;;2.20;;
1000;SDS011;489;47.806;12.858;2023-08-30T00:56:58;2.60;;;2.40;;
1000;SDS011;489;47.806;12.858;2023-08-30T00:59:01;2.97;;;2.60;;
1000;SDS011;489;47.806;12.858;2023-08-30T01:01:03;2.60;;;2.40;;
1000;SDS011;489;47.806;12.858;2023-08-30T01:03:10;1.90;;;1.80;;
1000;SDS011;489;47.806;12.858;2023-08-30T01:05:12;2.60;;;2.40;;
1000;SDS011;489;47.806;12.858;2023-08-30T01:07:14;2.77;;;2.50;;
1000;SDS011;489;47.806;12.858;2023-08-30T01:09:16;2.53;;;2.33;;
1000;SDS011;489;47.806;12.858;2023-08-30T01:11:19;2.33;;;2.20;;
1000;SDS011;489;47.806;12.858;2023-08-30T01:13:27;2.37;;;2.20;;
1000;SDS011;489;47.806;12.858;2023-08-30T01:15:32;2.40;;;2.20;;
1000;SDS011;489;47.806;12.858;2023-08-30T01:17:34;2.70;;;2.50;;
1000;SDS011;489;47.806;12.858;2023-08-30T01:19:39;2.50;;;2.30;;
1000;SDS011;489;47.806;12.858;2023-08-30T01:21:45;2.50;;;2.30;;
1000;SDS011;489;47.806;12.858;2023-08-30T01:23:53;2.00;;;1.90;;
1000;SDS011;489;47.806;12.858;2023-08-30T01:26:03;2.40;;;2.20;;
1000;SDS011;489;47.806;12.858;2023-08-30T01:28:11;1.90;;;1.80;;
1000;SDS011;489;47.806;12.858;2023-08-30T01:30:14;2.30;;;2.20;;
1000;SDS011;489;47.806;12.858;2023-08-30T01:32:16;2.90;;;2.70;;
1000;SDS011;489;47.806;12.858;2023-08-30T01:34:20;2.63;;;2.43;;
1000;SDS011;489;47.806;12.858;2023-08-30T01:36:22;3.00;;;2.70;;
1000;SDS011;489;47.806;12.858;2023-08-30T01:38:25;2.87;;;2.67;;
1000;SDS011;489;47.806;12.858;2023-08-30T01:40:30;2.73;;;2.53;;
1000;SDS011;489;47.806;12.858;2023-08-30T01:42:35;2.97;;;2.77;;
1000;SDS011;489;47.806;12.858;2023-08-30T01:44:40;2.70;;;2.50;;
1000;SDS011;489;47.806;12.858;2023-08-30T01:46:45;3.47;;;3.17;;
1000;SDS011;489;47.806;12.858;2023-08-30T01:48:47;2.90;;;2.60;;
1000;SDS011;489;47.806;12.858;2023-08-30T01:50:50;2.80;;;2.60;;
1000;SDS011;489;47.806;12.858;2023-08-30T01:52:55;2.80;;;2.60;;
1000;SDS011;489;47.806;12.858;2023-08-30T01:54:58;2.97;;;2.77;;
1000;SDS011;489;47.806;12.858;2023-08-30T01:57:00;2.43;;;2.23;;
1000;SDS011;489;47.806;12.858;2023-08-30T01:59:02;2.40;;;2.23;;
1000;SDS011;489;47.806;12.858;2023-08-30T02:01:05;2.03;;;1.90;;
1000;SDS011;489;47.806;12.858;2023-08-30T02:03:09;2.57;;;2.37;;
1000;SDS011;489;47.806;12.858;2023-08-30T02:05:11;2.20;;;2.10;;
1000;SDS011;489;47.806;12.858;2023-08-30T02:07:16;2.50;;;2.30;;
1000;SDS011;489;47.806;12.858;2023-08-30T02:09:21;2.13;;;2.03;;
1000;SDS011;489;47.806;12.858;2023-08-30T02:11:27;2.60;;;2.40;;
1000;SDS011;489;47.806;12.858;2023-08-30T02:13:29;2.33;;;2.13;;
1000;SDS011;489;47.806;12.858;2023-08-30T02:15:33;2.77;;;2.57;;
1000;SDS011;489;47.806;12.858;2023-08-30T02:17:36;2.80;;;2.60;;
1000;SDS011;489;47.806;12.858;2023-08-30T02:19:39;2.97;;;2.77;;
1000;SDS011;489;47.806;12.858;2023-08-30T02:21:42;3.00;;;2.80;;
1000;SDS011;489;47.806;12.858;2023-08-30T02:23:48;3.10;;;2.90;;
1000;SDS011;489;47.806;12.858;2023-08-30T02:25:51;2.63;;;2.43;;
1000;SDS011;489;47.806;12.858;2023-08-30T02:27:52;2.77;;;2.57;;
1000;SDS011;489;47.806;12.858;2023-08-30T02:29:53;2.93;;;2.43;;
1000;SDS011;489;47.806;12.858;2023-08-30T02:31:55;2.90;;;2.70;;
1000;SDS011;489;47.806;12.858;2023-08-30T02:33:59;2.87;;;2.67;;
1000;SDS011;489;47.806;12.858;2023-08-30T02:36:02;3.00;;;2.80;;
1000;SDS011;489;47.806;12.858;2023-08-30T02:38:04;2.90;;;2.70;;
1000;SDS011;489;47.806;12.858;2023-08-30T02:40:08;2.70;;;2.50;;
1000;SDS011;489;47.806;12.858;2023-08-30T02:42:12;2.57;;;2.37;;
1000;SDS011;489;47.806;12.858;2023-08-30T02:44:36;2.97;;;2.70;;
1000;SDS011;489;47.806;12.858;2023-08-30T02:46:38;2.33;;;2.23;;
1000;SDS011;489;47.806;12.858;2023-08-30T02:48:41;2.43;;;2.33;;
1000;SDS011;489;47.806;12.858;2023-08-30T02:50:46;3.07;;;2.70;;
1000;SDS011;489;47.806;12.858;2023-08-30T02:52:47;2.90;;;2.70;;
1000;SDS011;489;47.806;12.858;2023-08-30T02:54:51;2.47;;;2.27;;
1000;SDS011;489;47.806;12.858;2023-08-30T02:56:53;2.90;;;2.70;;
1000;SDS011;489;47.806;12.858;2023-08-30T02:58:56;2.23;;;2.13;;
1000;SDS011;489;47.806;12.858;2023-08-30T03:00:58;2.33;;;1.80;;
1000;SDS011;489;47.806;12.858;2023-08-30T03:03:01;2.43;;;1.73;;
1000;SDS011;489;47.806;12.858;2023-08-30T03:05:03;2.57;;;2.37;;
1000;SDS011;489;47.806;12.858;2023-08-30T03:07:07;2.20;;;2.10;;
1000;SDS011;489;47.806;12.858;2023-08-30T03:09:09;1.97;;;1.77;;
1000;SDS011;489;47.806;12.858;2023-08-30T03:11:12;2.07;;;1.97;;
1000;SDS011;489;47.806;12.858;2023-08-30T03:13:23;1.87;;;1.77;;
1000;SDS011;489;47.806;12.858;2023-08-30T03:15:25;1.90;;;1.80;;
1000;SDS011;489;47.806;12.858;2023-08-30T03:17:27;2.47;;;2.20;;
1000;SDS011;489;47.806;12.858;2023-08-30T03:19:28;2.30;;;2.20;;
1000;SDS011;489;47.806;12.858;2023-08-30T03:21:30;2.47;;;2.27;;
1000;SDS011;489;47.806;12.858;2023-08-30T03:23:34;2.30;;;2.17;;
1000;SDS011;489;47.806;12.858;2023-08-30T03:25:37;2.00;;;1.90;;
1000;SDS011;489;47.806;12.858;2023-08-30T03:27:40;2.80;;;2.50;;
1000;SDS011;489;47.806;12.858;2023-08-30T03:29:42;1.70;;;1.57;;
1000;SDS011;489;47.806;12.858;2023-08-30T03:31:44;2.00;;;1.90;;
1000;SDS011;489;47.806;12.858;2023-08-30T03:33:46;2.43;;;2.23;;
1000;SDS011;489;47.806;12.858;2023-08-30T03:35:48;2.30;;;2.10;;
1000;SDS011;489;47.806;12.858;2023-08-30T03:37:50;2.00;;;1.90;;
1000;SDS011;489;47.806;12.858;2023-08-30T03:39:54;2.10;;;2.00;;
1000;SDS011;489;47.806;12.858;2023-08-30T03:41:56;2.13;;;1.93;;
1000;SDS011;489;47.806;12.858;2023-08-30T03:43:58;2.00;;;1.90;;
1000;SDS011;489;47.806;12.858;2023-08-30T03:46:01;2.23;;;2.07;;
1000;SDS011;489;47.806;12.858;2023-08-30T03:48:03;1.97;;;1.87;;
1000;SDS011;489;47.806;12.858;2023-08-30T03:50:08;1.90;;;1.80;;
1000;SDS011;489;47.806;12.858;2023-08-30T03:52:11;2.67;;;2.37;;
1000;SDS011;489;47.806;12.858;2023-08-30T03:54:13;2.07;;;1.97;;
1000;SDS011;489;47.806;12.858;2023-08-30T03:56:18;2.20;;;2.00;;
1000;SDS011;489;47.806;12.858;2023-08-30T03:58:22;2.07;;;1.97;;
1000;SDS011;489;47.806;12.858;2023-08-30T04:00:26;2.63;;;2.43;;
1000;SDS011;489;47.806;12.858;2023-08-30T04:02:28;2.20;;;2.10;;
1000;SDS011;489;47.806;12.858;2023-08-30T04:04:30;2.57;;;2.37;;
1000;SDS011;489;47.806;12.858;2023-08-30T04:06:32;2.43;;;2.23;;
1000;SDS011;489;47.806;12.858;2023-08-30T04:08:36;2.77;;;2.53;;
1000;SDS011;489;47.806;12.858;2023-08-30T04:10:38;2.73;;;2.53;;
1000;SDS011;489;47.806;12.858;2023-08-30T04:12:43;2.93;;;2.73;;
1000;SDS011;489;47.806;12.858;2023-08-30T04:14:45;3.07;;;2.87;;
1000;SDS011;489;47.806;12.858;2023-08-30T04:16:47;3.70;;;2.60;;
1000;SDS011;489;47.806;12.858;2023-08-30T04:18:48;3.27;;;2.97;;
1000;SDS011;489;47.806;12.858;2023-08-30T04:20:53;3.07;;;2.77;;
1000;SDS011;489;47.806;12.858;2023-08-30T04:22:55;3.30;;;3.00;;
1000;SDS011;489;47.806;12.858;2023-08-30T04:24:58;2.77;;;2.40;;
1000;SDS011;489;47.806;12.858;2023-08-30T04:27:02;3.43;;;2.93;;
1000;SDS011;489;47.806;12.858;2023-08-30T04:29:05;2.60;;;2.40;;
1000;SDS011;489;47.806;12.858;2023-08-30T04:31:07;2.70;;;2.50;;
1000;SDS011;489;47.806;12.858;2023-08-30T04:33:09;2.73;;;2.53;;
1000;SDS011;489;47.806;12.858;2023-08-30T04:35:13;3.03;;;2.83;;
1000;SDS011;489;47.806;12.858;2023-08-30T04:37:16;2.57;;;2.37;;
1000;SDS011;489;47.806;12.858;2023-08-30T04:39:18;2.20;;;2.10;;
1000;SDS011;489;47.806;12.858;2023-08-30T04:41:21;2.30;;;2.10;;
1000;SDS011;489;47.806;12.858;2023-08-30T04:43:23;2.60;;;2.40;;
1000;SDS011;489;47.806;12.858;2023-08-30T04:45:26;2.23;;;2.03;;
1000;SDS011;489;47.806;12.858;2023-08-30T04:47:30;2.00;;;1.90;;
1000;SDS011;489;47.806;12.858;2023-08-30T04:49:33;2.23;;;2.03;;
1000;SDS011;489;47.806;12.858;2023-08-30T04:51:36;2.07;;;1.93;;
1000;SDS011;489;47.806;12.858;2023-08-30T04:53:38;2.90;;;2.70;;
1000;SDS011;489;47.806;12.858;2023-08-30T04:55:41;2.10;;;2.00;;
1000;SDS011;489;47.806;12.858;2023-08-30T04:57:44;2.10;;;2.00;;
1000;SDS011;489;47.806;12.858;2023-08-30T04:59:50;3.03;;;2.73;;
1000;SDS011;489;47.806;12.858;2023-08-30T05:01:53;2.53;;;2.33;;
1000;SDS011;489;47.806;12.858;2023-08-30T05:03:58;2.63;;;2.43;;
1000;SDS011;489;47.806;12.858;2023-08-30T05:06:01;2.50;;;2.30;;
1000;SDS011;489;47.806;12.858;2023-08-30T05:08:04;2.60;;;2.40;;
1000;SDS011;489;47.806;12.858;2023-08-30T05:10:07;2.80;;;2.57;;
1000;SDS011;489;47.806;12.858;2023-08-30T05:12:09;2.50;;;2.30;;
1000;SDS011;489;47.806;12.858;2023-08-30T05:14:11;3.00;;;2.70;;
1000;SDS011;489;47.806;12.858;2023-08-30T05:16:14;3.40;;;2.50;;
1000;SDS011;489;47.806;12.858;2023-08-30T05:18:18;3.10;;;2.80;;
1000;SDS011;489;47.806;12.858;2023-08-30T05:20:21;3.97;;;2.90;;
1000;SDS011;489;47.806;12.858;2023-08-30T05:22:23;3.53;;;3.23;;
1000;SDS011;489;47.806;12.858;2023-08-30T05:24:25;3.47;;;3.20;;
1000;SDS011;489;47.806;12.858;2023-08-30T05:26:28;3.50;;;3.20;;
1000;SDS011;489;47.806;12.858;2023-08-30T05:28:30;3.37;;;3.00;;
1000;SDS011;489;47.806;12.858;2023-08-30T05:30:32;3.30;;;3.03;;
1000;SDS011;489;47.806;12.858;2023-08-30T05:32:45;3.13;;;2.93;;
1000;SDS011;489;47.806;12.858;2023-08-30T05:35:09;3.13;;;2.87;;
1000;SDS011;489;47.806;12.858;2023-08-30T05:37:27;4.50;;;4.10;;
1000;SDS011;489;47.806;12.858;2023-08-30T05:39:38;3.97;;;3.63;;
1000;SDS011;489;47.806;12.858;2023-08-30T05:41:40;3.90;;;3.60;;
1000;SDS011;489;47.806;12.858;2023-08-30T05:43:42;4.10;;;3.73;;
1000;SDS011;489;47.806;12.858;2023-08-30T05:45:44;5.00;;;4.57;;
1000;SDS011;489;47.806;12.858;2023-08-30T05:47:46;3.70;;;3.40;;
1000;SDS011;489;47.806;12.858;2023-08-30T05:49:50;3.60;;;3.30;;
1000;SDS011;489;47.806;12.858;2023-08-30T05:51:53;4.37;;;4.00;;
1000;SDS011;489;47.806;12.858;2023-08-30T05:53:55;4.10;;;3.80;;
1000;SDS011;489;47.806;12.858;2023-08-30T05:55:57;3.67;;;3.37;;
1000;SDS011;489;47.806;12.858;2023-08-30T05:57:59;2.97;;;2.77;;
1000;SDS011;489;47.806;12.858;2023-08-30T06:00:02;2.77;;;2.60;;
1000;SDS011;489;47.806;12.858;2023-08-30T06:02:26;2.80;;;2.60;;
1000;SDS011;489;47.806;12.858;2023-08-30T06:04:28;3.20;;;2.90;;
1000;SDS011;489;47.806;12.858;2023-08-30T06:06:29;3.40;;;3.13;;
1000;SDS011;489;47.806;12.858;2023-08-30T06:08:32;2.93;;;2.73;;
1000;SDS011;489;47.806;12.858;2023-08-30T06:10:34;3.30;;;3.00;;
1000;SDS011;489;47.806;12.858;2023-08-30T06:12:36;3.40;;;3.10;;
1000;SDS011;489;47.806;12.858;2023-08-30T06:14:38;2.90;;;2.70;;
1000;SDS011;489;47.806;12.858;2023-08-30T06:16:40;3.33;;;3.13;;
1000;SDS011;489;47.806;12.858;2023-08-30T06:18:44;2.80;;;2.60;;
1000;SDS011;489;47.806;12.858;2023-08-30T06:20:46;2.83;;;2.63;;
1000;SDS011;489;47.806;12.858;2023-08-30T06:22:50;3.53;;;3.23;;
1000;SDS011;489;47.806;12.858;2023-08-30T06:24:53;3.90;;;3.20;;
1000;SDS011;489;47.806;12.858;2023-08-30T06:26:55;3.73;;;3.20;;
1000;SDS011;489;47.806;12.858;2023-08-30T06:28:58;4.20;;;3.00;;
1000;SDS011;489;47.806;12.858;2023-08-30T06:31:00;3.73;;;3.00;;
1000;SDS011;489;47.806;12.858;2023-08-30T06:33:02;2.83;;;2.60;;
1000;SDS011;489;47.806;12.858;2023-08-30T06:35:05;3.03;;;2.73;;
1000;SDS011;489;47.806;12.858;2023-08-30T06:37:07;2.90;;;2.70;;
1000;SDS011;489;47.806;12.858;2023-08-30T06:39:10;2.20;;;2.10;;
1000;SDS011;489;47.806;12.858;2023-08-30T06:41:12;13.20;;;3.90;;
1000;SDS011;489;47.806;12.858;2023-08-30T06:43:19;2.40;;;2.20;;
1000;SDS011;489;47.806;12.858;2023-08-30T06:45:21;2.83;;;2.60;;
1000;SDS011;489;47.806;12.858;2023-08-30T06:47:22;2.80;;;2.60;;
1000;SDS011;489;47.806;12.858;2023-08-30T06:49:24;2.30;;;2.13;;
1000;SDS011;489;47.806;12.858;2023-08-30T06:51:26;2.57;;;2.37;;
1000;SDS011;489;47.806;12.858;2023-08-30T06:53:28;2.60;;;2.27;;
1000;SDS011;489;47.806;12.858;2023-08-30T06:55:30;2.70;;;2.10;;
1000;SDS011;489;47.806;12.858;2023-08-30T06:57:35;2.93;;;2.20;;
1000;SDS011;489;47.806;12.858;2023-08-30T06:59:37;2.50;;;2.20;;
1000;SDS011;489;47.806;12.858;2023-08-30T07:01:39;2.50;;;2.30;;
1000;SDS011;489;47.806;12.858;2023-08-30T07:03:41;3.23;;;2.93;;
1000;SDS011;489;47.806;12.858;2023-08-30T07:05:44;2.70;;;2.50;;
1000;SDS011;489;47.806;12.858;2023-08-30T07:07:47;2.20;;;2.10;;
1000;SDS011;489;47.806;12.858;2023-08-30T07:09:49;2.63;;;2.43;;
1000;SDS011;489;47.806;12.858;2023-08-30T07:11:50;2.77;;;2.30;;
1000;SDS011;489;47.806;12.858;2023-08-30T07:13:54;2.43;;;2.23;;
1000;SDS011;489;47.806;12.858;2023-08-30T07:15:56;1.90;;;1.80;;
1000;SDS011;489;47.806;12.858;2023-08-30T07:17:58;2.57;;;2.37;;
1000;SDS011;489;47.806;12.858;2023-08-30T07:19:59;2.40;;;2.20;;
1000;SDS011;489;47.806;12.858;2023-08-30T07:22:03;2.67;;;2.47;;
1000;SDS011;489;47.806;12.858;2023-08-30T07:24:06;3.10;;;2.30;;
1000;SDS011;489;47.806;12.858;2023-08-30T07:26:08;2.47;;;2.27;;
1000;SDS011;489;47.806;12.858;2023-08-30T07:28:10;2.70;;;2.50;;
1000;SDS011;489;47.806;12.858;2023-08-30T07:30:14;3.03;;;2.20;;
1000;SDS011;489;47.806;12.858;2023-08-30T07:32:16;2.10;;;2.00;;
1000;SDS011;489;47.806;12.858;2023-08-30T07:34:19;2.33;;;2.13;;
1000;SDS011;489;47.806;12.858;2023-08-30T07:36:20;2.30;;;2.10;;
1000;SDS011;489;47.806;12.858;2023-08-30T07:38:22;2.13;;;2.00;;
1000;SDS011;489;47.806;12.858;2023-08-30T07:40:23;1.90;;;1.80;;
1000;SDS011;489;47.806;12.858;2023-08-30T07:42:26;2.23;;;2.10;;
1000;SDS011;489;47.806;12.858;2023-08-30T07:44:28;2.40;;;1.90;;
1000;SDS011;489;47.806;12.858;2023-08-30T07:46:35;2.50;;;2.30;;
1000;SDS011;489;47.806;12.858;2023-08-30T07:48:36;2.60;;;2.40;;
1000;SDS011;489;47.806;12.858;2023-08-30T07:50:38;5.60;;;3.07;;
1000;SDS011;489;47.806;12.858;2023-08-30T07:52:40;4.10;;;3.07;;
1000;SDS011;489;47.806;12.858;2023-08-30T07:54:42;4.20;;;3.00;;
1000;SDS011;489;47.806;12.858;2023-08-30T07:56:43;3.13;;;2.93;;
1000;SDS011;489;47.806;12.858;2023-08-30T07:58:45;2.70;;;2.50;;
1000;SDS011;489;47.806;12.858;2023-08-30T08:00:50;3.07;;;2.87;;
1000;SDS011;489;47.806;12.858;2023-08-30T08:02:53;2.70;;;2.50;;
1000;SDS011;489;47.806;12.858;2023-08-30T08:04:55;2.50;;;2.30;;
1000;SDS011;489;47.806;12.858;2023-08-30T08:06:57;2.67;;;2.47;;
1000;SDS011;489;47.806;12.858;2023-08-30T08:08:59;2.73;;;2.53;;
1000;SDS011;489;47.806;12.858;2023-08-30T08:11:02;2.60;;;2.40;;
1000;SDS011;489;47.806;12.858;2023-08-30T08:13:03;3.03;;;2.77;;
1000;SDS011;489;47.806;12.858;2023-08-30T08:15:06;3.23;;;3.03;;
1000;SDS011;489;47.806;12.858;2023-08-30T08:17:09;2.90;;;2.70;;
1000;SDS011;489;47.806;12.858;2023-08-30T08:19:12;2.63;;;2.40;;
1000;SDS011;489;47.806;12.858;2023-08-30T08:21:14;2.93;;;2.73;;
1000;SDS011;489;47.806;12.858;2023-08-30T08:23:16;2.97;;;2.77;;
1000;SDS011;489;47.806;12.858;2023-08-30T08:25:18;3.30;;;3.00;;
1000;SDS011;489;47.806;12.858;2023-08-30T08:27:21;3.00;;;2.80;;
1000;SDS011;489;47.806;12.858;2023-08-30T08:29:22;4.27;;;3.97;;
1000;SDS011;489;47.806;12.858;2023-08-30T08:31:24;3.23;;;3.00;;
1000;SDS011;489;47.806;12.858;2023-08-30T08:33:28;4.30;;;2.93;;
1000;SDS011;489;47.806;12.858;2023-08-30T08:35:31;3.03;;;2.83;;
1000;SDS011;489;47.806;12.858;2023-08-30T08:37:33;4.63;;;3.00;;
1000;SDS011;489;47.806;12.858;2023-08-30T08:39:36;3.27;;;2.97;;
1000;SDS011;489;47.806;12.858;2023-08-30T08:41:39;3.43;;;3.13;;
1000;SDS011;489;47.806;12.858;2023-08-30T08:43:42;3.00;;;2.70;;
1000;SDS011;489;47.806;12.858;2023-08-30T08:45:45;2.57;;;2.37;;
1000;SDS011;489;47.806;12.858;2023-08-30T08:47:48;2.77;;;2.57;;
1000;SDS011;489;47.806;12.858;2023-08-30T08:49:50;3.47;;;3.07;;
1000;SDS011;489;47.806;12.858;2023-08-30T08:52:11;3.93;;;3.20;;
1000;SDS011;489;47.806;12.858;2023-08-30T08:54:13;2.80;;;2.60;;
1000;SDS011;489;47.806;12.858;2023-08-30T08:56:17;3.27;;;3.07;;
1000;SDS011;489;47.806;12.858;2023-08-30T08:58:19;3.20;;;3.00;;
1000;SDS011;489;47.806;12.858;2023-08-30T09:00:20;2.67;;;2.47;;
1000;SDS011;489;47.806;12.858;2023-08-30T09:02:24;3.43;;;3.13;;
1000;SDS011;489;47.806;12.858;2023-08-30T09:04:26;3.80;;;3.50;;
1000;SDS011;489;47.806;12.858;2023-08-30T09:06:30;3.70;;;3.27;;
1000;SDS011;489;47.806;12.858;2023-08-30T09:08:34;3.13;;;2.90;;
1000;SDS011;489;47.806;12.858;2023-08-30T09:10:37;3.23;;;2.83;;
1000;SDS011;489;47.806;12.858;2023-08-30T09:12:39;2.70;;;2.50;;
1000;SDS011;489;47.806;12.858;2023-08-30T09:14:41;16.70;;;2.90;;
1000;SDS011;489;47.806;12.858;2023-08-30T09:16:54;2.40;;;2.20;;
1000;SDS011;489;47.806;12.858;2023-08-30T09:18:57;2.87;;;2.67;;
1000;SDS011;489;47.806;12.858;2023-08-30T09:21:04;2.83;;;2.63;;
1000;SDS011;489;47.806;12.858;2023-08-30T09:23:15;2.53;;;2.33;;
1000;SDS011;489;47.806;12.858;2023-08-30T09:25:25;2.23;;;2.03;;
1000;SDS011;489;47.806;12.858;2023-08-30T09:27:31;2.53;;;2.33;;
1000;SDS011;489;47.806;12.858;2023-08-30T09:29:33;2.20;;;2.10;;
1000;SDS011;489;47.806;12.858;2023-08-30T09:31:36;4.53;;;2.63;;
1000;SDS011;489;47.806;12.858;2023-08-30T09:33:39;5.70;;;3.07;;
1000;SDS011;489;47.806;12.858;2023-08-30T09:35:44;4.23;;;2.97;;
1000;SDS011;489;47.806;12.858;2023-08-30T09:37:47;6.60;;;2.77;;
1000;SDS011;489;47.806;12.858;2023-08-30T09:39:49;3.93;;;2.30;;
1000;SDS011;489;47.806;12.858;2023-08-30T09:41:54;16.40;;;3.53;;
1000;SDS011;489;47.806;12.858;2023-08-30T09:43:56;4.67;;;2.23;;
1000;SDS011;489;47.806;12.858;2023-08-30T09:46:02;2.73;;;2.13;;
1000;SDS011;489;47.806;12.858;2023-08-30T09:48:05;8.10;;;3.83;;
1000;SDS011;489;47.806;12.858;2023-08-30T09:50:07;17.93;;;3.37;;
1000;SDS011;489;47.806;12.858;2023-08-30T09:52:10;7.70;;;2.93;;
1000;SDS011;489;47.806;12.858;2023-08-30T09:54:13;8.20;;;3.30;;
1000;SDS011;489;47.806;12.858;2023-08-30T09:56:16;4.03;;;2.83;;
1000;SDS011;489;47.806;12.858;2023-08-30T09:58:20;4.83;;;3.53;;
1000;SDS011;489;47.806;12.858;2023-08-30T10:00:23;3.80;;;2.93;;
1000;SDS011;489;47.806;12.858;2023-08-30T10:02:25;3.80;;;3.00;;
1000;SDS011;489;47.806;12.858;2023-08-30T10:04:27;7.00;;;2.97;;
1000;SDS011;489;47.806;12.858;2023-08-30T10:06:30;2.83;;;2.53;;
1000;SDS011;489;47.806;12.858;2023-08-30T10:08:33;2.73;;;2.33;;
1000;SDS011;489;47.806;12.858;2023-08-30T10:10:37;6.80;;;2.87;;
1000;SDS011;489;47.806;12.858;2023-08-30T10:12:39;2.13;;;1.93;;
1000;SDS011;489;47.806;12.858;2023-08-30T10:14:44;1.97;;;1.87;;
1000;SDS011;489;47.806;12.858;2023-08-30T10:16:46;2.00;;;1.90;;
1000;SDS011;489;47.806;12.858;2023-08-30T10:18:50;2.90;;;2.70;;
1000;SDS011;489;47.806;12.858;2023-08-30T10:20:56;2.20;;;2.00;;
1000;SDS011;489;47.806;12.858;2023-08-30T10:22:59;2.23;;;2.03;;
1000;SDS011;489;47.806;12.858;2023-08-30T10:25:04;1.90;;;1.80;;
1000;SDS011;489;47.806;12.858;2023-08-30T10:27:08;2.30;;;1.73;;
1000;SDS011;489;47.806;12.858;2023-08-30T10:29:13;3.00;;;1.63;;
1000;SDS011;489;47.806;12.858;2023-08-30T10:31:17;1.93;;;1.83;;
1000;SDS011;489;47.806;12.858;2023-08-30T10:33:19;2.33;;;2.20;;
1000;SDS011;489;47.806;12.858;2023-08-30T10:35:26;1.97;;;1.87;;
1000;SDS011;489;47.806;12.858;2023-08-30T10:37:29;2.30;;;2.20;;
1000;SDS011;489;47.806;12.858;2023-08-30T10:39:34;2.10;;;2.00;;
1000;SDS011;489;47.806;12.858;2023-08-30T10:41:37;2.00;;;1.90;;
1000;SDS011;489;47.806;12.858;2023-08-30T10:43:39;4.60;;;2.10;;
1000;SDS011;489;47.806;12.858;2023-08-30T10:45:41;4.00;;;2.23;;
1000;SDS011;489;47.806;12.858;2023-08-30T10:47:44;2.43;;;2.17;;
1000;SDS011;489;47.806;12.858;2023-08-30T10:49:47;1.80;;;1.70;;
1000;SDS011;489;47.806;12.858;2023-08-30T10:51:55;1.90;;;1.80;;
1000;SDS011;489;47.806;12.858;2023-08-30T10:53:58;1.90;;;1.80;;
1000;SDS011;489;47.806;12.858;2023-08-30T10:56:03;2.00;;;1.80;;
1000;SDS011;489;47.806;12.858;2023-08-30T10:58:14;2.30;;;2.10;;
1000;SDS011;489;47.806;12.858;2023-08-30T11:00:18;1.97;;;1.80;;
1000;SDS011;489;47.806;12.858;2023-08-30T11:02:22;1.70;;;1.60;;
1000;SDS011;489;47.806;12.858;2023-08-30T11:04:27;1.70;;;1.60;;
1000;SDS011;489;47.806;12.858;2023-08-30T11:06:29;2.00;;;1.47;;
1000;SDS011;489;47.806;12.858;2023-08-30T11:08:30;2.43;;;1.80;;
1000;SDS011;489;47.806;12.858;2023-08-30T11:10:33;1.87;;;1.40;;
1000;SDS011;489;47.806;12.858;2023-08-30T11:12:35;1.90;;;1.50;;
1000;SDS011;489;47.806;12.858;2023-08-30T11:14:37;2.10;;;1.90;;
1000;SDS011;489;47.806;12.858;2023-08-30T11:16:41;1.80;;;1.70;;
1000;SDS011;489;47.806;12.858;2023-08-30T11:18:43;1.73;;;1.63;;
1000;SDS011;489;47.806;12.858;2023-08-30T11:20:46;2.70;;;1.83;;
1000;SDS011;489;47.806;12.858;2023-08-30T11:22:49;1.50;;;1.40;;
1000;SDS011;489;47.806;12.858;2023-08-30T11:24:52;1.80;;;1.70;;
1000;SDS011;489;47.806;12.858;2023-08-30T11:26:54;2.37;;;1.53;;
1000;SDS011;489;47.806;12.858;2023-08-30T11:28:56;1.70;;;1.60;;
1000;SDS011;489;47.806;12.858;2023-08-30T11:30:58;1.80;;;1.67;;
1000;SDS011;489;47.806;12.858;2023-08-30T11:32:59;1.40;;;1.30;;
1000;SDS011;489;47.806;12.858;2023-08-30T11:35:02;2.00;;;1.60;;
1000;SDS011;489;47.806;12.858;2023-08-30T11:37:05;1.60;;;1.50;;
1000;SDS011;489;47.806;12.858;2023-08-30T11:39:06;1.47;;;1.37;;
1000;SDS011;489;47.806;12.858;2023-08-30T11:41:09;1.83;;;1.73;;
1000;SDS011;489;47.806;12.858;2023-08-30T11:43:11;2.00;;;1.90;;
1000;SDS011;489;47.806;12.858;2023-08-30T11:45:14;1.80;;;1.70;;
1000;SDS011;489;47.806;12.858;2023-08-30T11:47:17;1.70;;;1.60;;
1000;SDS011;489;47.806;12.858;2023-08-30T11:49:21;1.80;;;1.70;;
1000;SDS011;489;47.806;12.858;2023-08-30T11:51:23;1.70;;;1.60;;
1000;SDS011;489;47.806;12.858;2023-08-30T11:53:26;2.10;;;1.90;;
1000;SDS011;489;47.806;12.858;2023-08-30T11:55:28;1.70;;;1.60;;
1000;SDS011;489;47.806;12.858;2023-08-30T11:57:32;1.60;;;1.50;;
1000;SDS011;489;47.806;12.858;2023-08-30T11:59:35;1.70;;;1.60;;
1000;SDS011;489;47.806;12.858;2023-08-30T12:01:37;1.70;;;1.60;;
1000;SDS011;489;47.806;12.858;2023-08-30T12:03:42;1.63;;;1.53;;
1000;SDS011;489;47.806;12.858;2023-08-30T12:05:47;1.70;;;1.60;;
1000;SDS011;489;47.806;12.858;2023-08-30T12:07:50;1.80;;;1.70;;
1000;SDS011;489;47.806;12.858;2023-08-30T12:10:03;2.50;;;2.00;;
1000;SDS011;489;47.806;12.858;2023-08-30T12:12:05;1.70;;;1.60;;
1000;SDS011;489;47.806;12.858;2023-08-30T12:14:08;1.67;;;1.57;;
1000;SDS011;489;47.806;12.858;2023-08-30T12:16:14;1.70;;;1.60;;
1000;SDS011;489;47.806;12.858;2023-08-30T12:18:17;1.73;;;1.50;;
1000;SDS011;489;47.806;12.858;2023-08-30T12:20:22;1.60;;;1.50;;
1000;SDS011;489;47.806;12.858;2023-08-30T12:22:34;1.70;;;1.60;;
1000;SDS011;489;47.806;12.858;2023-08-30T12:24:41;4.73;;;1.70;;
1000;SDS011;489;47.806;12.858;2023-08-30T12:26:45;1.50;;;1.40;;
1000;SDS011;489;47.806;12.858;2023-08-30T12:28:47;1.40;;;1.30;;
1000;SDS011;489;47.806;12.858;2023-08-30T12:30:49;1.50;;;1.40;;
1000;SDS011;489;47.806;12.858;2023-08-30T12:32:50;1.60;;;1.50;;
1000;SDS011;489;47.806;12.858;2023-08-30T12:35:02;1.60;;;1.50;;
1000;SDS011;489;47.806;12.858;2023-08-30T12:37:05;1.80;;;1.70;;
1000;SDS011;489;47.806;12.858;2023-08-30T12:39:07;1.90;;;1.80;;
1000;SDS011;489;47.806;12.858;2023-08-30T12:41:09;1.80;;;1.70;;
1000;SDS011;489;47.806;12.858;2023-08-30T12:43:31;2.60;;;1.80;;
1000;SDS011;489;47.806;12.858;2023-08-30T12:45:33;1.90;;;1.80;;
1000;SDS011;489;47.806;12.858;2023-08-30T12:47:34;2.07;;;1.97;;